sensor_id;sensor_type;location;lat;lon;timestamp;pressure;altitude;pressure_sealevel;temperature;humidity
18697;BME280;22617;43.690;27.956;2022-07-06T00:02:02;98685.88;;;19.01;66.10
18697;BME280;22617;43.690;27.956;2022-07-06T00:07:06;98687.75;;;18.99;66.16
18697;BME280;22617;43.690;27.956;2022-07-06T00:12:12;98676.31;;;18.98;66.35
18697;BME280;22617;43.690;27.956;2022-07-06T00:17:16;98681.66;;;18.97;66.57
18697;BME280;22617;43.690;27.956;2022-07-06T00:22:20;98683.63;;;18.92;66.55
18697;BME280;22617;43.690;27.956;2022-07-06T00:27:26;98678.59;;;18.86;66.54
18697;BME280;22617;43.690;27.956;2022-07-06T00:32:30;98682.88;;;18.68;66.83
18697;BME280;22617;43.690;27.956;2022-07-06T00:37:34;98682.69;;;18.72;66.77
18697;BME280;22617;43.690;27.956;2022-07-06T00:42:41;98681.78;;;18.73;66.54
18697;BME280;22617;43.690;27.956;2022-07-06T00:47:46;98671.94;;;18.77;66.90
18697;BME280;22617;43.690;27.956;2022-07-06T00:52:51;98679.19;;;18.72;66.13
18697;BME280;22617;43.690;27.956;2022-07-06T00:57:59;98669.41;;;18.54;66.72
18697;BME280;22617;43.690;27.956;2022-07-06T01:03:04;98674.63;;;18.55;66.94
18697;BME280;22617;43.690;27.956;2022-07-06T01:08:08;98667.19;;;18.65;66.86
18697;BME280;22617;43.690;27.956;2022-07-06T01:13:14;98658.13;;;18.49;66.90
18697;BME280;22617;43.690;27.956;2022-07-06T01:18:18;98664.03;;;18.34;66.88
18697;BME280;22617;43.690;27.956;2022-07-06T01:23:25;98658.38;;;18.43;66.94
18697;BME280;22617;43.690;27.956;2022-07-06T01:28:29;98660.72;;;18.50;66.90
18697;BME280;22617;43.690;27.956;2022-07-06T01:33:33;98658.38;;;18.43;66.49
18697;BME280;22617;43.690;27.956;2022-07-06T01:38:48;98650.19;;;18.28;67.00
18697;BME280;22617;43.690;27.956;2022-07-06T01:43:52;98658.09;;;18.28;66.61
18697;BME280;22617;43.690;27.956;2022-07-06T01:48:57;98654.03;;;18.42;66.74
18697;BME280;22617;43.690;27.956;2022-07-06T01:54:03;98663.38;;;18.28;66.82
18697;BME280;22617;43.690;27.956;2022-07-06T01:59:08;98662.78;;;18.22;67.00
18697;BME280;22617;43.690;27.956;2022-07-06T02:04:12;98664.91;;;17.91;67.50
18697;BME280;22617;43.690;27.956;2022-07-06T02:09:18;98662.66;;;18.03;67.27
18697;BME280;22617;43.690;27.956;2022-07-06T02:14:23;98662.06;;;17.95;66.92
18697;BME280;22617;43.690;27.956;2022-07-06T02:19:28;98653.84;;;17.81;67.34
18697;BME280;22617;43.690;27.956;2022-07-06T02:24:35;98651.94;;;17.84;67.03
18697;BME280;22617;43.690;27.956;2022-07-06T02:29:39;98645.66;;;17.89;67.15
18697;BME280;22617;43.690;27.956;2022-07-06T02:34:43;98643.44;;;17.78;66.98
18697;BME280;22617;43.690;27.956;2022-07-06T02:45:48;98646.84;;;17.80;67.47
18697;BME280;22617;43.690;27.956;2022-07-06T02:50:53;98639.97;;;17.76;67.94
18697;BME280;22617;43.690;27.956;2022-07-06T02:55:58;98649.44;;;17.81;68.13
18697;BME280;22617;43.690;27.956;2022-07-06T03:01:05;98651.34;;;17.78;68.27
18697;BME280;22617;43.690;27.956;2022-07-06T03:06:10;98644.66;;;17.69;69.37
18697;BME280;22617;43.690;27.956;2022-07-06T03:11:15;98644.28;;;17.78;68.73
18697;BME280;22617;43.690;27.956;2022-07-06T03:16:21;98635.59;;;17.98;68.55
18697;BME280;22617;43.690;27.956;2022-07-06T03:21:27;98638.97;;;18.02;68.59
18697;BME280;22617;43.690;27.956;2022-07-06T03:26:32;98634.59;;;18.22;68.68
18697;BME280;22617;43.690;27.956;2022-07-06T03:31:38;98637.66;;;18.34;68.83
18697;BME280;22617;43.690;27.956;2022-07-06T03:36:42;98633.88;;;18.61;68.34
18697;BME280;22617;43.690;27.956;2022-07-06T03:41:47;98629.09;;;18.91;67.37
18697;BME280;22617;43.690;27.956;2022-07-06T03:46:53;98632.00;;;19.24;66.41
18697;BME280;22617;43.690;27.956;2022-07-06T03:52:00;98631.94;;;19.45;66.15
18697;BME280;22617;43.690;27.956;2022-07-06T03:57:15;98632.66;;;19.68;65.60
18697;BME280;22617;43.690;27.956;2022-07-06T04:02:21;98639.66;;;19.87;65.74
18697;BME280;22617;43.690;27.956;2022-07-06T04:07:27;98635.22;;;20.07;64.73
18697;BME280;22617;43.690;27.956;2022-07-06T04:12:39;98625.50;;;20.24;64.47
18697;BME280;22617;43.690;27.956;2022-07-06T04:17:46;98627.22;;;20.44;63.73
18697;BME280;22617;43.690;27.956;2022-07-06T04:23:22;98621.03;;;20.62;63.51
18697;BME280;22617;43.690;27.956;2022-07-06T04:28:28;98619.22;;;20.80;62.67
18697;BME280;22617;43.690;27.956;2022-07-06T04:33:34;98628.06;;;20.96;62.52
18697;BME280;22617;43.690;27.956;2022-07-06T04:38:39;98618.34;;;21.14;62.73
18697;BME280;22617;43.690;27.956;2022-07-06T04:43:45;98622.72;;;21.30;62.31
18697;BME280;22617;43.690;27.956;2022-07-06T04:48:53;98619.09;;;21.49;61.94
18697;BME280;22617;43.690;27.956;2022-07-06T04:54:03;98625.09;;;21.68;61.74
18697;BME280;22617;43.690;27.956;2022-07-06T04:59:11;98630.16;;;21.88;62.86
18697;BME280;22617;43.690;27.956;2022-07-06T05:04:17;98617.53;;;22.09;61.59
18697;BME280;22617;43.690;27.956;2022-07-06T05:09:22;98616.81;;;22.37;60.80
18697;BME280;22617;43.690;27.956;2022-07-06T05:14:27;98625.50;;;22.54;60.97
18697;BME280;22617;43.690;27.956;2022-07-06T05:19:33;98629.78;;;22.73;59.18
18697;BME280;22617;43.690;27.956;2022-07-06T05:24:37;98629.34;;;22.94;59.58
18697;BME280;22617;43.690;27.956;2022-07-06T05:29:43;98629.94;;;23.14;58.03
18697;BME280;22617;43.690;27.956;2022-07-06T05:34:49;98628.53;;;23.36;58.02
18697;BME280;22617;43.690;27.956;2022-07-06T05:39:55;98636.16;;;23.57;58.50
18697;BME280;22617;43.690;27.956;2022-07-06T05:45:00;98635.47;;;23.81;57.64
18697;BME280;22617;43.690;27.956;2022-07-06T05:50:08;98630.03;;;23.97;56.96
18697;BME280;22617;43.690;27.956;2022-07-06T05:55:24;98633.28;;;24.29;58.51
18697;BME280;22617;43.690;27.956;2022-07-06T06:00:29;98638.06;;;24.51;56.57
18697;BME280;22617;43.690;27.956;2022-07-06T06:05:40;98632.25;;;24.71;56.13
18697;BME280;22617;43.690;27.956;2022-07-06T06:10:46;98621.34;;;25.01;56.54
18697;BME280;22617;43.690;27.956;2022-07-06T06:15:54;98624.13;;;25.25;55.25
18697;BME280;22617;43.690;27.956;2022-07-06T06:21:00;98617.63;;;25.41;55.36
18697;BME280;22617;43.690;27.956;2022-07-06T06:26:04;98619.75;;;25.61;56.00
18697;BME280;22617;43.690;27.956;2022-07-06T06:31:08;98616.69;;;25.91;53.29
18697;BME280;22617;43.690;27.956;2022-07-06T06:36:14;98604.97;;;26.18;53.77
18697;BME280;22617;43.690;27.956;2022-07-06T06:41:18;98611.72;;;26.47;52.92
18697;BME280;22617;43.690;27.956;2022-07-06T06:46:23;98609.22;;;26.68;50.86
18697;BME280;22617;43.690;27.956;2022-07-06T06:51:29;98603.63;;;26.95;52.39
18697;BME280;22617;43.690;27.956;2022-07-06T06:56:33;98602.22;;;27.24;49.81
18697;BME280;22617;43.690;27.956;2022-07-06T07:01:37;98607.34;;;27.38;51.90
18697;BME280;22617;43.690;27.956;2022-07-06T07:06:43;98610.63;;;27.64;52.89
18697;BME280;22617;43.690;27.956;2022-07-06T07:11:47;98603.19;;;27.90;50.48
18697;BME280;22617;43.690;27.956;2022-07-06T07:16:52;98609.97;;;28.16;49.13
18697;BME280;22617;43.690;27.956;2022-07-06T07:21:58;98600.69;;;28.31;47.34
18697;BME280;22617;43.690;27.956;2022-07-06T07:27:03;98607.91;;;28.51;47.85
18697;BME280;22617;43.690;27.956;2022-07-06T07:32:07;98601.13;;;28.68;50.17
18697;BME280;22617;43.690;27.956;2022-07-06T07:37:13;98606.31;;;28.92;47.94
18697;BME280;22617;43.690;27.956;2022-07-06T07:42:17;98608.44;;;29.19;48.13
18697;BME280;22617;43.690;27.956;2022-07-06T07:47:22;98611.78;;;29.11;47.11
18697;BME280;22617;43.690;27.956;2022-07-06T07:52:27;98612.28;;;29.46;49.32
18697;BME280;22617;43.690;27.956;2022-07-06T07:57:31;98612.28;;;29.77;47.04
18697;BME280;22617;43.690;27.956;2022-07-06T08:02:36;98612.16;;;29.88;45.48
18697;BME280;22617;43.690;27.956;2022-07-06T08:07:42;98612.84;;;30.20;47.41
18697;BME280;22617;43.690;27.956;2022-07-06T08:12:46;98608.41;;;30.50;46.23
18697;BME280;22617;43.690;27.956;2022-07-06T08:17:51;98609.38;;;30.78;47.94
18697;BME280;22617;43.690;27.956;2022-07-06T08:22:56;98614.88;;;30.86;45.37
18697;BME280;22617;43.690;27.956;2022-07-06T08:28:01;98617.03;;;31.11;47.04
18697;BME280;22617;43.690;27.956;2022-07-06T08:33:05;98616.53;;;31.35;43.14
18697;BME280;22617;43.690;27.956;2022-07-06T08:38:11;98619.72;;;31.01;44.14
18697;BME280;22617;43.690;27.956;2022-07-06T08:43:16;98615.75;;;30.77;42.71
18697;BME280;22617;43.690;27.956;2022-07-06T08:48:23;98622.50;;;31.29;46.04
18697;BME280;22617;43.690;27.956;2022-07-06T08:53:28;98624.78;;;31.24;43.52
18697;BME280;22617;43.690;27.956;2022-07-06T08:58:32;98622.75;;;31.82;44.33
18697;BME280;22617;43.690;27.956;2022-07-06T09:03:38;98624.41;;;31.65;43.41
18697;BME280;22617;43.690;27.956;2022-07-06T09:08:46;98620.97;;;31.73;42.07
18697;BME280;22617;43.690;27.956;2022-07-06T09:13:52;98617.28;;;31.74;45.19
18697;BME280;22617;43.690;27.956;2022-07-06T09:18:57;98604.69;;;31.55;42.29
18697;BME280;22617;43.690;27.956;2022-07-06T09:24:06;98605.88;;;32.34;43.76
18697;BME280;22617;43.690;27.956;2022-07-06T09:29:11;98602.44;;;32.42;42.54
18697;BME280;22617;43.690;27.956;2022-07-06T09:34:16;98610.44;;;32.52;42.71
18697;BME280;22617;43.690;27.956;2022-07-06T09:39:24;98596.03;;;32.78;41.23
18697;BME280;22617;43.690;27.956;2022-07-06T09:44:30;98599.72;;;32.77;40.70
18697;BME280;22617;43.690;27.956;2022-07-06T09:49:36;98602.84;;;32.65;40.89
18697;BME280;22617;43.690;27.956;2022-07-06T09:54:42;98589.06;;;32.76;42.67
18697;BME280;22617;43.690;27.956;2022-07-06T09:59:50;98585.19;;;32.96;42.16
18697;BME280;22617;43.690;27.956;2022-07-06T10:04:55;98576.13;;;33.23;43.98
18697;BME280;22617;43.690;27.956;2022-07-06T10:10:01;98582.19;;;33.51;42.00
18697;BME280;22617;43.690;27.956;2022-07-06T10:15:06;98573.06;;;33.18;41.96
18697;BME280;22617;43.690;27.956;2022-07-06T10:20:12;98570.25;;;33.27;40.54
18697;BME280;22617;43.690;27.956;2022-07-06T10:25:18;98570.88;;;33.21;42.02
18697;BME280;22617;43.690;27.956;2022-07-06T10:30:23;98570.03;;;33.47;42.42
18697;BME280;22617;43.690;27.956;2022-07-06T10:35:29;98571.03;;;33.71;41.03
18697;BME280;22617;43.690;27.956;2022-07-06T10:40:36;98563.56;;;32.70;42.44
18697;BME280;22617;43.690;27.956;2022-07-06T10:45:58;98566.47;;;32.95;42.59
18697;BME280;22617;43.690;27.956;2022-07-06T10:51:03;98561.84;;;32.34;41.66
18697;BME280;22617;43.690;27.956;2022-07-06T10:56:10;98560.50;;;31.75;44.35
18697;BME280;22617;43.690;27.956;2022-07-06T11:01:15;98556.81;;;31.39;47.25
18697;BME280;22617;43.690;27.956;2022-07-06T11:06:21;98541.50;;;30.93;44.47
18697;BME280;22617;43.690;27.956;2022-07-06T11:11:38;98545.47;;;30.80;46.75
18697;BME280;22617;43.690;27.956;2022-07-06T11:17:01;98539.00;;;30.53;48.69
18697;BME280;22617;43.690;27.956;2022-07-06T11:22:07;98533.16;;;30.39;49.31
18697;BME280;22617;43.690;27.956;2022-07-06T11:27:14;98531.34;;;30.68;46.45
18697;BME280;22617;43.690;27.956;2022-07-06T11:32:23;98521.44;;;30.40;46.46
18697;BME280;22617;43.690;27.956;2022-07-06T11:37:28;98520.91;;;31.76;45.28
18697;BME280;22617;43.690;27.956;2022-07-06T11:42:34;98520.88;;;33.17;42.77
18697;BME280;22617;43.690;27.956;2022-07-06T11:47:38;98503.59;;;33.44;40.62
18697;BME280;22617;43.690;27.956;2022-07-06T11:52:42;98508.63;;;33.31;40.27
18697;BME280;22617;43.690;27.956;2022-07-06T11:57:49;98498.00;;;33.12;41.03
18697;BME280;22617;43.690;27.956;2022-07-06T12:03:02;98491.00;;;33.19;38.19
18697;BME280;22617;43.690;27.956;2022-07-06T12:08:06;98485.09;;;33.65;39.94
18697;BME280;22617;43.690;27.956;2022-07-06T12:13:12;98489.22;;;33.78;40.22
18697;BME280;22617;43.690;27.956;2022-07-06T12:18:17;98487.47;;;34.19;40.15
18697;BME280;22617;43.690;27.956;2022-07-06T12:23:21;98478.94;;;33.89;40.48
18697;BME280;22617;43.690;27.956;2022-07-06T12:28:27;98471.41;;;34.33;38.96
18697;BME280;22617;43.690;27.956;2022-07-06T12:33:32;98480.03;;;34.29;38.61
18697;BME280;22617;43.690;27.956;2022-07-06T12:38:44;98465.97;;;34.25;39.67
18697;BME280;22617;43.690;27.956;2022-07-06T12:44:00;98461.56;;;34.00;39.01
18697;BME280;22617;43.690;27.956;2022-07-06T12:49:13;98463.28;;;34.25;37.92
18697;BME280;22617;43.690;27.956;2022-07-06T12:54:18;98466.16;;;34.32;41.23
18697;BME280;22617;43.690;27.956;2022-07-06T12:59:23;98454.63;;;34.30;38.13
18697;BME280;22617;43.690;27.956;2022-07-06T13:04:30;98452.28;;;33.52;38.24
18697;BME280;22617;43.690;27.956;2022-07-06T13:09:36;98442.94;;;33.89;38.92
18697;BME280;22617;43.690;27.956;2022-07-06T13:14:41;98440.06;;;33.40;38.67
18697;BME280;22617;43.690;27.956;2022-07-06T13:19:46;98438.81;;;33.18;39.51
18697;BME280;22617;43.690;27.956;2022-07-06T13:24:50;98443.66;;;33.15;39.94
18697;BME280;22617;43.690;27.956;2022-07-06T13:29:56;98439.09;;;32.12;42.60
18697;BME280;22617;43.690;27.956;2022-07-06T13:35:00;98430.19;;;32.20;42.12
18697;BME280;22617;43.690;27.956;2022-07-06T13:40:05;98428.34;;;32.02;42.87
18697;BME280;22617;43.690;27.956;2022-07-06T13:45:12;98430.53;;;32.42;42.17
18697;BME280;22617;43.690;27.956;2022-07-06T13:50:17;98420.81;;;32.50;42.13
18697;BME280;22617;43.690;27.956;2022-07-06T13:55:21;98422.81;;;32.47;42.26
18697;BME280;22617;43.690;27.956;2022-07-06T14:00:27;98427.69;;;32.44;42.04
18697;BME280;22617;43.690;27.956;2022-07-06T14:05:31;98424.81;;;32.20;41.22
18697;BME280;22617;43.690;27.956;2022-07-06T14:10:35;98429.81;;;32.15;41.40
18697;BME280;22617;43.690;27.956;2022-07-06T14:15:40;98431.13;;;31.93;41.82
18697;BME280;22617;43.690;27.956;2022-07-06T14:20:45;98421.25;;;31.66;42.51
18697;BME280;22617;43.690;27.956;2022-07-06T14:25:50;98421.44;;;31.55;41.53
18697;BME280;22617;43.690;27.956;2022-07-06T14:30:56;98416.69;;;31.22;43.42
18697;BME280;22617;43.690;27.956;2022-07-06T14:36:04;98421.22;;;31.21;43.69
18697;BME280;22617;43.690;27.956;2022-07-06T14:41:08;98419.63;;;31.28;43.09
18697;BME280;22617;43.690;27.956;2022-07-06T14:46:14;98418.81;;;31.18;43.59
18697;BME280;22617;43.690;27.956;2022-07-06T14:51:19;98416.34;;;31.07;43.06
18697;BME280;22617;43.690;27.956;2022-07-06T14:56:23;98412.31;;;30.84;44.69
18697;BME280;22617;43.690;27.956;2022-07-06T15:01:29;98416.31;;;30.70;44.14
18697;BME280;22617;43.690;27.956;2022-07-06T15:06:34;98410.53;;;30.55;43.00
18697;BME280;22617;43.690;27.956;2022-07-06T15:11:56;98409.88;;;30.34;44.34
18697;BME280;22617;43.690;27.956;2022-07-06T15:17:02;98413.00;;;30.29;43.10
18697;BME280;22617;43.690;27.956;2022-07-06T15:22:06;98404.84;;;30.02;43.32
18697;BME280;22617;43.690;27.956;2022-07-06T15:27:11;98411.88;;;30.03;43.91
18697;BME280;22617;43.690;27.956;2022-07-06T15:32:19;98413.56;;;29.85;42.73
18697;BME280;22617;43.690;27.956;2022-07-06T15:37:25;98409.59;;;29.70;43.82
18697;BME280;22617;43.690;27.956;2022-07-06T15:42:29;98413.53;;;29.56;42.96
18697;BME280;22617;43.690;27.956;2022-07-06T15:47:35;98418.88;;;29.37;43.49
18697;BME280;22617;43.690;27.956;2022-07-06T15:52:39;98422.34;;;29.18;43.91
18697;BME280;22617;43.690;27.956;2022-07-06T15:57:43;98426.88;;;29.27;44.66
18697;BME280;22617;43.690;27.956;2022-07-06T16:02:49;98420.75;;;29.06;43.94
18697;BME280;22617;43.690;27.956;2022-07-06T16:07:53;98428.09;;;29.04;44.44
18697;BME280;22617;43.690;27.956;2022-07-06T16:13:17;98420.41;;;28.90;44.86
18697;BME280;22617;43.690;27.956;2022-07-06T16:18:23;98431.81;;;28.82;44.99
18697;BME280;22617;43.690;27.956;2022-07-06T16:23:28;98418.53;;;28.81;44.90
18697;BME280;22617;43.690;27.956;2022-07-06T16:28:33;98420.88;;;28.44;45.83
18697;BME280;22617;43.690;27.956;2022-07-06T16:33:39;98424.38;;;28.44;45.64
18697;BME280;22617;43.690;27.956;2022-07-06T16:38:44;98415.38;;;28.25;46.45
18697;BME280;22617;43.690;27.956;2022-07-06T16:43:49;98424.44;;;28.12;45.61
18697;BME280;22617;43.690;27.956;2022-07-06T16:48:54;98424.94;;;27.86;46.18
18697;BME280;22617;43.690;27.956;2022-07-06T16:53:58;98426.91;;;27.72;46.61
18697;BME280;22617;43.690;27.956;2022-07-06T16:59:02;98432.56;;;27.47;47.62
18697;BME280;22617;43.690;27.956;2022-07-06T17:04:08;98423.50;;;27.16;48.44
18697;BME280;22617;43.690;27.956;2022-07-06T17:09:16;98412.56;;;27.08;49.77
18697;BME280;22617;43.690;27.956;2022-07-06T17:14:21;98419.03;;;26.95;50.80
18697;BME280;22617;43.690;27.956;2022-07-06T17:19:26;98417.44;;;26.81;51.42
18697;BME280;22617;43.690;27.956;2022-07-06T17:24:31;98419.38;;;26.79;51.61
18697;BME280;22617;43.690;27.956;2022-07-06T17:29:35;98424.22;;;26.63;53.29
18697;BME280;22617;43.690;27.956;2022-07-06T17:34:41;98427.25;;;26.47;53.85
18697;BME280;22617;43.690;27.956;2022-07-06T17:39:48;98421.28;;;26.32;54.64
18697;BME280;22617;43.690;27.956;2022-07-06T17:44:52;98433.63;;;26.22;56.46
18697;BME280;22617;43.690;27.956;2022-07-06T17:49:59;98438.91;;;26.11;55.89
18697;BME280;22617;43.690;27.956;2022-07-06T17:55:04;98441.69;;;26.10;56.66
18697;BME280;22617;43.690;27.956;2022-07-06T18:00:09;98454.53;;;26.04;56.68
18697;BME280;22617;43.690;27.956;2022-07-06T18:05:15;98466.16;;;25.92;58.09
18697;BME280;22617;43.690;27.956;2022-07-06T18:10:20;98490.81;;;25.72;57.21
18697;BME280;22617;43.690;27.956;2022-07-06T18:15:24;98503.31;;;24.85;59.68
18697;BME280;22617;43.690;27.956;2022-07-06T18:20:30;98498.22;;;24.94;60.09
18697;BME280;22617;43.690;27.956;2022-07-06T18:25:35;98499.38;;;25.15;58.68
18697;BME280;22617;43.690;27.956;2022-07-06T18:30:40;98506.41;;;25.29;58.96
18697;BME280;22617;43.690;27.956;2022-07-06T18:35:46;98512.88;;;25.38;57.59
18697;BME280;22617;43.690;27.956;2022-07-06T18:40:56;98516.53;;;25.37;58.29
18697;BME280;22617;43.690;27.956;2022-07-06T18:46:02;98527.03;;;25.27;58.40
18697;BME280;22617;43.690;27.956;2022-07-06T18:51:08;98538.97;;;25.22;57.99
18697;BME280;22617;43.690;27.956;2022-07-06T18:56:13;98538.22;;;25.19;57.72
18697;BME280;22617;43.690;27.956;2022-07-06T19:01:18;98543.25;;;25.11;58.12
18697;BME280;22617;43.690;27.956;2022-07-06T19:06:25;98542.63;;;25.08;58.84
18697;BME280;22617;43.690;27.956;2022-07-06T19:11:29;98554.75;;;24.74;59.29
18697;BME280;22617;43.690;27.956;2022-07-06T19:16:34;98548.34;;;24.76;59.63
18697;BME280;22617;43.690;27.956;2022-07-06T19:21:42;98544.97;;;24.87;59.82
18697;BME280;22617;43.690;27.956;2022-07-06T19:26:47;98546.34;;;24.93;60.07
18697;BME280;22617;43.690;27.956;2022-07-06T19:31:51;98555.16;;;24.55;61.45
18697;BME280;22617;43.690;27.956;2022-07-06T19:36:57;98555.00;;;24.31;62.58
18697;BME280;22617;43.690;27.956;2022-07-06T19:42:01;98551.59;;;24.15;63.55
18697;BME280;22617;43.690;27.956;2022-07-06T19:47:06;98551.31;;;24.20;64.71
18697;BME280;22617;43.690;27.956;2022-07-06T19:52:12;98542.72;;;24.02;65.44
18697;BME280;22617;43.690;27.956;2022-07-06T19:57:18;98554.22;;;24.03;65.76
18697;BME280;22617;43.690;27.956;2022-07-06T20:02:23;98548.13;;;24.01;66.02
18697;BME280;22617;43.690;27.956;2022-07-06T20:07:29;98536.16;;;23.67;67.21
18697;BME280;22617;43.690;27.956;2022-07-06T20:12:33;98534.56;;;23.64;67.19
18697;BME280;22617;43.690;27.956;2022-07-06T20:17:38;98531.66;;;23.55;68.05
18697;BME280;22617;43.690;27.956;2022-07-06T20:22:44;98529.50;;;23.60;68.17
18697;BME280;22617;43.690;27.956;2022-07-06T20:27:48;98522.88;;;23.67;68.04
18697;BME280;22617;43.690;27.956;2022-07-06T20:32:55;98522.31;;;23.62;68.19
18697;BME280;22617;43.690;27.956;2022-07-06T20:38:00;98514.16;;;23.36;68.68
18697;BME280;22617;43.690;27.956;2022-07-06T20:43:05;98520.63;;;23.18;69.62
18697;BME280;22617;43.690;27.956;2022-07-06T20:48:25;98518.34;;;23.26;69.46
18697;BME280;22617;43.690;27.956;2022-07-06T20:53:31;98523.97;;;22.93;70.89
18697;BME280;22617;43.690;27.956;2022-07-06T20:58:36;98520.44;;;23.07;70.09
18697;BME280;22617;43.690;27.956;2022-07-06T21:04:00;98521.69;;;23.16;70.11
18697;BME280;22617;43.690;27.956;2022-07-06T21:09:06;98522.94;;;23.10;70.15
18697;BME280;22617;43.690;27.956;2022-07-06T21:14:10;98527.03;;;23.01;70.36
18697;BME280;22617;43.690;27.956;2022-07-06T21:19:15;98521.13;;;22.82;70.87
18697;BME280;22617;43.690;27.956;2022-07-06T21:24:20;98528.69;;;22.74;71.34
18697;BME280;22617;43.690;27.956;2022-07-06T21:29:26;98528.34;;;22.94;70.82
18697;BME280;22617;43.690;27.956;2022-07-06T21:34:30;98527.97;;;23.00;70.22
18697;BME280;22617;43.690;27.956;2022-07-06T21:39:36;98525.88;;;23.06;70.42
18697;BME280;22617;43.690;27.956;2022-07-06T21:44:40;98523.88;;;23.09;70.12
18697;BME280;22617;43.690;27.956;2022-07-06T21:49:47;98532.34;;;22.87;70.71
18697;BME280;22617;43.690;27.956;2022-07-06T21:54:52;98529.13;;;22.67;71.60
18697;BME280;22617;43.690;27.956;2022-07-06T21:59:57;98530.00;;;22.67;71.76
18697;BME280;22617;43.690;27.956;2022-07-06T22:05:01;98530.84;;;22.68;71.28
18697;BME280;22617;43.690;27.956;2022-07-06T22:10:12;98528.19;;;22.68;71.44
18697;BME280;22617;43.690;27.956;2022-07-06T22:15:16;98537.19;;;22.65;71.73
18697;BME280;22617;43.690;27.956;2022-07-06T22:20:20;98528.63;;;22.60;71.61
18697;BME280;22617;43.690;27.956;2022-07-06T22:25:26;98527.13;;;22.56;71.90
18697;BME280;22617;43.690;27.956;2022-07-06T22:30:30;98525.69;;;22.50;72.25
18697;BME280;22617;43.690;27.956;2022-07-06T22:35:34;98521.22;;;22.51;72.32
18697;BME280;22617;43.690;27.956;2022-07-06T22:40:40;98519.81;;;22.59;72.15
18697;BME280;22617;43.690;27.956;2022-07-06T22:46:02;98523.63;;;22.70;71.35
18697;BME280;22617;43.690;27.956;2022-07-06T22:51:07;98526.25;;;22.85;70.85
18697;BME280;22617;43.690;27.956;2022-07-06T22:56:12;98530.97;;;22.80;70.43
18697;BME280;22617;43.690;27.956;2022-07-06T23:01:17;98528.59;;;22.76;70.96
18697;BME280;22617;43.690;27.956;2022-07-06T23:06:23;98533.28;;;22.56;71.79
18697;BME280;22617;43.690;27.956;2022-07-06T23:11:29;98539.88;;;22.35;72.37
18697;BME280;22617;43.690;27.956;2022-07-06T23:16:34;98532.03;;;22.18;72.85
18697;BME280;22617;43.690;27.956;2022-07-06T23:21:39;98539.38;;;21.99;73.93
18697;BME280;22617;43.690;27.956;2022-07-06T23:26:44;98528.16;;;21.94;74.23
18697;BME280;22617;43.690;27.956;2022-07-06T23:31:49;98528.22;;;22.08;74.28
18697;BME280;22617;43.690;27.956;2022-07-06T23:36:53;98528.56;;;22.02;74.70
18697;BME280;22617;43.690;27.956;2022-07-06T23:41:59;98541.13;;;22.14;74.76
18697;BME280;22617;43.690;27.956;2022-07-06T23:47:04;98532.59;;;22.09;75.06
18697;BME280;22617;43.690;27.956;2022-07-06T23:52:08;98528.75;;;21.99;75.91
18697;BME280;22617;43.690;27.956;2022-07-06T23:57:13;98524.53;;;22.10;75.55
